createdAt,value
2018-01-23T00:00:38.859Z,998.86
2018-01-23T00:01:38.854Z,998.86
2018-01-23T00:02:38.852Z,998.87
2018-01-23T00:03:38.845Z,998.84
2018-01-23T00:04:38.842Z,998.81
2018-01-23T00:05:38.849Z,998.77
2018-01-23T00:06:38.831Z,998.82
2018-01-23T00:07:38.827Z,998.84
2018-01-23T00:08:38.823Z,998.83
2018-01-23T00:09:38.820Z,998.85
2018-01-23T00:10:38.813Z,998.90
2018-01-23T00:11:38.808Z,998.88
2018-01-23T00:12:38.805Z,998.91
2018-01-23T00:13:38.800Z,998.92
2018-01-23T00:14:38.798Z,998.89
2018-01-23T00:15:38.789Z,998.94
2018-01-23T00:16:38.786Z,998.98
2018-01-23T00:17:38.780Z,998.98
2018-01-23T00:18:38.776Z,999.02
2018-01-23T00:19:38.770Z,998.99
2018-01-23T00:20:38.772Z,998.99
2018-01-23T00:21:38.762Z,998.98
2018-01-23T00:22:38.757Z,998.98
2018-01-23T00:23:38.756Z,998.94
2018-01-23T00:24:38.749Z,998.95
2018-01-23T00:25:38.867Z,998.90
2018-01-23T00:26:38.742Z,998.95
2018-01-23T00:27:38.734Z,998.95
2018-01-23T00:28:38.730Z,998.96
2018-01-23T00:29:38.723Z,998.99
2018-01-23T00:30:38.718Z,998.99
2018-01-23T00:31:38.714Z,999.01
2018-01-23T00:32:38.711Z,999.06
2018-01-23T00:33:38.705Z,999.13
2018-01-23T00:34:38.703Z,999.14
2018-01-23T00:35:38.698Z,999.13
2018-01-23T00:36:38.694Z,999.14
2018-01-23T00:37:38.685Z,999.14
2018-01-23T00:38:38.681Z,999.18
2018-01-23T00:39:38.680Z,999.19
2018-01-23T00:40:38.675Z,999.23
2018-01-23T00:41:38.673Z,999.21
2018-01-23T00:42:38.665Z,999.24
2018-01-23T00:43:38.657Z,999.31
2018-01-23T00:44:38.654Z,999.30
2018-01-23T00:45:38.663Z,999.34
2018-01-23T00:46:38.644Z,999.29
2018-01-23T00:47:38.640Z,999.33
2018-01-23T00:48:38.636Z,999.31
2018-01-23T00:49:38.632Z,999.32
2018-01-23T00:50:38.628Z,999.30
2018-01-23T00:51:38.623Z,999.41
2018-01-23T00:52:38.618Z,999.41
2018-01-23T00:53:38.613Z,999.46
2018-01-23T00:54:38.610Z,999.50
2018-01-23T00:55:38.605Z,999.53
2018-01-23T00:56:39.279Z,999.53
2018-01-23T00:57:38.595Z,999.49
2018-01-23T00:58:38.592Z,999.49
2018-01-23T00:59:38.588Z,999.49
2018-01-23T01:00:38.587Z,999.49
2018-01-23T01:01:38.577Z,999.47
2018-01-23T01:02:38.573Z,999.51
2018-01-23T01:03:38.568Z,999.51
2018-01-23T01:04:38.567Z,999.52
2018-01-23T01:05:38.559Z,999.51
2018-01-23T01:06:38.556Z,999.53
2018-01-23T01:07:38.555Z,999.60
2018-01-23T01:08:38.555Z,999.63
2018-01-23T01:09:38.542Z,999.69
2018-01-23T01:10:38.552Z,999.78
2018-01-23T01:11:38.589Z,999.78
2018-01-23T01:12:38.536Z,999.83
2018-01-23T01:13:38.526Z,999.86
2018-01-23T01:14:38.550Z,999.87
2018-01-23T01:15:38.522Z,999.88
2018-01-23T01:16:38.541Z,999.91
2018-01-23T01:17:38.506Z,999.94
2018-01-23T01:18:38.512Z,999.92
2018-01-23T01:19:38.502Z,999.95
2018-01-23T01:20:38.494Z,1000.02
2018-01-23T01:21:38.489Z,1000.04
2018-01-23T01:22:38.486Z,1000.03
2018-01-23T01:23:38.752Z,1000.12
2018-01-23T01:24:38.509Z,1000.18
2018-01-23T01:25:38.467Z,1000.21
2018-01-23T01:26:38.470Z,1000.20
2018-01-23T01:27:38.468Z,1000.24
2018-01-23T01:28:38.460Z,1000.19
2018-01-23T01:29:38.456Z,1000.20
2018-01-23T01:30:38.466Z,1000.25
2018-01-23T01:31:38.447Z,1000.30
2018-01-23T01:32:38.449Z,1000.37
2018-01-23T01:33:38.438Z,1000.35
2018-01-23T01:34:38.434Z,1000.39
2018-01-23T01:35:38.430Z,1000.46
2018-01-23T01:36:38.426Z,1000.49
2018-01-23T01:37:38.421Z,1000.48
2018-01-23T01:38:38.417Z,1000.47
2018-01-23T01:39:38.414Z,1000.58
2018-01-23T01:40:38.410Z,1000.60
2018-01-23T01:41:38.403Z,1000.60
2018-01-23T01:42:38.401Z,1000.63
2018-01-23T01:43:38.396Z,1000.57
2018-01-23T01:44:38.392Z,1000.62
2018-01-23T01:45:38.387Z,1000.69
2018-01-23T01:46:38.383Z,1000.66
2018-01-23T01:47:38.378Z,1000.70
2018-01-23T01:48:38.375Z,1000.69
2018-01-23T01:49:38.369Z,1000.74
2018-01-23T01:50:38.365Z,1000.75
2018-01-23T01:51:38.367Z,1000.70
2018-01-23T01:52:38.362Z,1000.72
2018-01-23T01:53:38.354Z,1000.71
2018-01-23T01:54:38.351Z,1000.75
2018-01-23T01:55:38.345Z,1000.70
2018-01-23T01:56:38.341Z,1000.74
2018-01-23T01:57:38.338Z,1000.74
2018-01-23T01:58:38.331Z,1000.80
2018-01-23T01:59:38.328Z,1000.84
2018-01-23T02:00:38.322Z,1000.85
2018-01-23T02:01:38.318Z,1000.82
2018-01-23T02:02:38.315Z,1000.83
2018-01-23T02:03:38.310Z,1000.87
2018-01-23T02:04:38.306Z,1000.86
2018-01-23T02:05:38.301Z,1000.88
2018-01-23T02:06:38.299Z,1000.84
2018-01-23T02:07:38.293Z,1000.91
2018-01-23T02:08:38.288Z,1000.90
2018-01-23T02:09:38.302Z,1000.96
2018-01-23T02:10:38.279Z,1000.91
2018-01-23T02:11:38.276Z,1000.93
2018-01-23T02:12:38.276Z,1000.95
2018-01-23T02:13:38.266Z,1000.93
2018-01-23T02:14:38.264Z,1000.93
2018-01-23T02:15:38.258Z,1000.89
2018-01-23T02:16:38.255Z,1000.91
2018-01-23T02:17:38.257Z,1000.90
2018-01-23T02:18:38.249Z,1000.91
2018-01-23T02:19:38.240Z,1000.96
2018-01-23T02:20:38.237Z,1000.95
2018-01-23T02:21:38.231Z,1001.01
2018-01-23T02:22:38.228Z,1001.00
2018-01-23T02:23:38.224Z,1001.03
2018-01-23T02:24:38.219Z,1001.00
2018-01-23T02:25:38.214Z,1001.03
2018-01-23T02:26:38.217Z,1000.96
2018-01-23T02:27:38.207Z,1001.02
2018-01-23T02:28:38.494Z,1001.10
2018-01-23T02:29:38.199Z,1001.08
2018-01-23T02:30:38.191Z,1001.03
2018-01-23T02:31:39.472Z,1001.00
2018-01-23T02:32:38.436Z,1001.07
2018-01-23T02:33:38.167Z,1000.94
2018-01-23T02:34:38.174Z,1001.04
2018-01-23T02:35:38.170Z,1001.02
2018-01-23T02:36:38.165Z,1001.02
2018-01-23T02:37:38.159Z,1001.02
2018-01-23T02:38:38.156Z,1001.05
2018-01-23T02:39:38.151Z,1001.02
2018-01-23T02:40:38.184Z,1001.03
2018-01-23T02:41:38.140Z,1001.07
2018-01-23T02:42:38.138Z,1001.09
2018-01-23T02:43:38.135Z,1001.09
2018-01-23T02:44:38.132Z,1001.17
2018-01-23T02:45:38.123Z,1001.19
2018-01-23T02:46:38.119Z,1001.17
2018-01-23T02:47:38.116Z,1001.24
2018-01-23T02:48:38.110Z,1001.20
2018-01-23T02:49:38.106Z,1001.28
2018-01-23T02:50:38.103Z,1001.23
2018-01-23T02:51:38.104Z,1001.27
2018-01-23T02:52:38.093Z,1001.23
2018-01-23T02:53:38.089Z,1001.31
2018-01-23T02:54:38.083Z,1001.30
2018-01-23T02:55:38.086Z,1001.31
2018-01-23T02:56:38.081Z,1001.35
2018-01-23T02:57:38.075Z,1001.35
2018-01-23T02:58:38.066Z,1001.39
2018-01-23T02:59:38.871Z,1001.36
2018-01-23T03:00:38.058Z,1001.41
2018-01-23T03:01:38.051Z,1001.41
2018-01-23T03:02:38.819Z,1001.41
2018-01-23T03:03:38.032Z,1001.43
2018-01-23T03:04:38.030Z,1001.50
2018-01-23T03:05:38.033Z,1001.46
2018-01-23T03:06:38.028Z,1001.47
2018-01-23T03:07:38.024Z,1001.48
2018-01-23T03:08:38.038Z,1001.49
2018-01-23T03:09:38.014Z,1001.52
2018-01-23T03:10:38.012Z,1001.53
2018-01-23T03:11:38.008Z,1001.52
2018-01-23T03:12:38.001Z,1001.51
2018-01-23T03:13:37.996Z,1001.50
2018-01-23T03:14:37.991Z,1001.49
2018-01-23T03:15:37.986Z,1001.51
2018-01-23T03:16:38.004Z,1001.54
2018-01-23T03:17:37.982Z,1001.48
2018-01-23T03:18:37.973Z,1001.47
2018-01-23T03:19:37.970Z,1001.52
2018-01-23T03:20:37.965Z,1001.54
2018-01-23T03:21:37.959Z,1001.56
2018-01-23T03:22:38.212Z,1001.59
2018-01-23T03:23:37.950Z,1001.62
2018-01-23T03:24:37.951Z,1001.64
2018-01-23T03:25:37.940Z,1001.66
2018-01-23T03:26:37.934Z,1001.69
2018-01-23T03:27:37.931Z,1001.66
2018-01-23T03:28:37.926Z,1001.70
2018-01-23T03:29:37.920Z,1001.68
2018-01-23T03:30:37.917Z,1001.70
2018-01-23T03:31:37.914Z,1001.70
2018-01-23T03:32:37.907Z,1001.73
2018-01-23T03:33:37.903Z,1001.72
2018-01-23T03:34:37.899Z,1001.72
2018-01-23T03:35:37.893Z,1001.71
2018-01-23T03:36:37.889Z,1001.77
2018-01-23T03:37:37.884Z,1001.79
2018-01-23T03:38:37.880Z,1001.78
2018-01-23T03:39:37.874Z,1001.81
2018-01-23T03:40:37.871Z,1001.88
2018-01-23T03:41:37.864Z,1001.87
2018-01-23T03:42:37.863Z,1001.91
2018-01-23T03:43:37.858Z,1001.90
2018-01-23T03:44:37.850Z,1001.91
2018-01-23T03:45:37.847Z,1001.81
2018-01-23T03:46:37.845Z,1001.85
2018-01-23T03:47:37.839Z,1001.80
2018-01-23T03:48:37.834Z,1001.85
2018-01-23T03:49:37.832Z,1001.86
2018-01-23T03:50:37.824Z,1001.91
2018-01-23T03:51:37.819Z,1001.90
2018-01-23T03:52:37.814Z,1001.88
2018-01-23T03:53:37.810Z,1001.89
2018-01-23T03:54:37.807Z,1001.90
2018-01-23T03:55:37.804Z,1001.96
2018-01-23T03:56:37.819Z,1001.93
2018-01-23T03:57:37.781Z,1001.94
2018-01-23T03:58:37.787Z,1001.99
2018-01-23T03:59:37.784Z,1001.98
2018-01-23T04:00:37.779Z,1002.05
2018-01-23T04:01:37.774Z,1002.10
2018-01-23T04:02:37.772Z,1002.13
2018-01-23T04:03:37.767Z,1002.20
2018-01-23T04:04:37.762Z,1002.19
2018-01-23T04:05:37.756Z,1002.15
2018-01-23T04:06:37.752Z,1002.20
2018-01-23T04:07:37.747Z,1002.16
2018-01-23T04:08:37.743Z,1002.15
2018-01-23T04:09:37.739Z,1002.17
2018-01-23T04:10:37.735Z,1002.16
2018-01-23T04:11:37.730Z,1002.16
2018-01-23T04:12:37.726Z,1002.25
2018-01-23T04:13:37.720Z,1002.21
2018-01-23T04:14:37.716Z,1002.26
2018-01-23T04:15:37.711Z,1002.34
2018-01-23T04:16:37.709Z,1002.30
2018-01-23T04:17:37.702Z,1002.28
2018-01-23T04:18:37.698Z,1002.29
2018-01-23T04:19:37.693Z,1002.34
2018-01-23T04:20:37.689Z,1002.31
2018-01-23T04:21:37.687Z,1002.27
2018-01-23T04:22:37.688Z,1002.28
2018-01-23T04:23:37.678Z,1002.26
2018-01-23T04:24:37.672Z,1002.24
2018-01-23T04:25:37.670Z,1002.27
2018-01-23T04:26:37.662Z,1002.28
2018-01-23T04:27:37.661Z,1002.32
2018-01-23T04:28:37.655Z,1002.35
2018-01-23T04:29:37.649Z,1002.31
2018-01-23T04:30:37.644Z,1002.30
2018-01-23T04:31:38.089Z,1002.34
2018-01-23T04:32:37.637Z,1002.38
2018-01-23T04:33:37.630Z,1002.41
2018-01-23T04:34:37.626Z,1002.33
2018-01-23T04:35:37.633Z,1002.40
2018-01-23T04:36:37.618Z,1002.47
2018-01-23T04:37:37.612Z,1002.49
2018-01-23T04:38:37.610Z,1002.52
2018-01-23T04:39:37.604Z,1002.50
2018-01-23T04:40:37.599Z,1002.50
2018-01-23T04:41:37.604Z,1002.52
2018-01-23T04:42:37.593Z,1002.54
2018-01-23T04:43:37.588Z,1002.62
2018-01-23T04:44:37.581Z,1002.66
2018-01-23T04:45:37.577Z,1002.66
2018-01-23T04:46:37.576Z,1002.61
2018-01-23T04:47:37.574Z,1002.66
2018-01-23T04:48:37.564Z,1002.65
2018-01-23T04:49:37.558Z,1002.67
2018-01-23T04:50:37.557Z,1002.69
2018-01-23T04:51:37.548Z,1002.72
2018-01-23T04:52:37.545Z,1002.67
2018-01-23T04:53:37.539Z,1002.72
2018-01-23T04:54:37.538Z,1002.70
2018-01-23T04:55:37.604Z,1002.73
2018-01-23T04:56:37.527Z,1002.74
2018-01-23T04:57:37.522Z,1002.70
2018-01-23T04:58:37.517Z,1002.75
2018-01-23T04:59:37.516Z,1002.81
2018-01-23T05:00:37.515Z,1002.80
2018-01-23T05:01:37.504Z,1002.85
2018-01-23T05:02:38.493Z,1002.79
2018-01-23T05:03:37.499Z,1002.84
2018-01-23T05:04:37.492Z,1002.83
2018-01-23T05:05:37.486Z,1002.84
2018-01-23T05:06:37.482Z,1002.84
2018-01-23T05:07:37.477Z,1002.85
2018-01-23T05:08:37.484Z,1002.88
2018-01-23T05:09:37.474Z,1002.88
2018-01-23T05:10:37.463Z,1002.90
2018-01-23T05:11:37.457Z,1002.80
2018-01-23T05:12:37.456Z,1002.86
2018-01-23T05:13:37.449Z,1002.91
2018-01-23T05:14:37.448Z,1002.89
2018-01-23T05:15:37.441Z,1002.94
2018-01-23T05:16:37.438Z,1002.92
2018-01-23T05:17:37.434Z,1002.90
2018-01-23T05:18:37.426Z,1002.93
2018-01-23T05:19:37.422Z,1002.94
2018-01-23T05:20:37.418Z,1002.99
2018-01-23T05:21:37.418Z,1003.00
2018-01-23T05:22:37.407Z,1003.02
2018-01-23T05:23:37.404Z,1003.06
2018-01-23T05:24:37.402Z,1003.06
2018-01-23T05:25:37.392Z,1003.10
2018-01-23T05:26:37.390Z,1003.05
2018-01-23T05:27:37.384Z,1003.10
2018-01-23T05:28:37.381Z,1003.02
2018-01-23T05:29:37.374Z,1003.09
2018-01-23T05:30:37.370Z,1003.13
2018-01-23T05:31:37.365Z,1003.17
2018-01-23T05:32:37.363Z,1003.17
2018-01-23T05:33:37.358Z,1003.15
2018-01-23T05:34:37.352Z,1003.13
2018-01-23T05:35:37.346Z,1003.13
2018-01-23T05:36:37.341Z,1003.15
2018-01-23T05:37:39.195Z,1003.16
2018-01-23T05:38:37.817Z,1003.17
2018-01-23T05:39:38.328Z,1003.15
2018-01-23T05:40:37.400Z,1003.12
2018-01-23T05:41:37.320Z,1003.18
2018-01-23T05:42:37.313Z,1003.24
2018-01-23T05:43:37.308Z,1003.30
2018-01-23T05:44:37.302Z,1003.28
2018-01-23T05:45:37.296Z,1003.31
2018-01-23T05:46:37.306Z,1003.33
2018-01-23T05:47:37.288Z,1003.33
2018-01-23T05:48:37.284Z,1003.34
2018-01-23T05:49:37.276Z,1003.39
2018-01-23T05:50:37.275Z,1003.35
2018-01-23T05:51:37.270Z,1003.42
2018-01-23T05:52:37.266Z,1003.46
2018-01-23T05:53:37.256Z,1003.48
2018-01-23T05:54:37.263Z,1003.47
2018-01-23T05:55:37.248Z,1003.44
2018-01-23T05:56:37.246Z,1003.52
2018-01-23T05:57:37.236Z,1003.52
2018-01-23T05:58:37.238Z,1003.55
2018-01-23T05:59:37.230Z,1003.57
2018-01-23T06:00:37.226Z,1003.61
2018-01-23T06:01:37.219Z,1003.58
2018-01-23T06:02:37.212Z,1003.61
2018-01-23T06:03:37.287Z,1003.60
2018-01-23T06:04:37.205Z,1003.65
2018-01-23T06:05:37.198Z,1003.65
2018-01-23T06:06:37.211Z,1003.67
2018-01-23T06:07:37.187Z,1003.72
2018-01-23T06:08:37.192Z,1003.73
2018-01-23T06:09:37.852Z,1003.72
2018-01-23T06:10:37.162Z,1003.74
2018-01-23T06:11:37.164Z,1003.75
2018-01-23T06:12:37.164Z,1003.80
2018-01-23T06:13:37.156Z,1003.75
2018-01-23T06:14:37.156Z,1003.84
2018-01-23T06:15:37.163Z,1003.85
2018-01-23T06:16:37.248Z,1003.82
2018-01-23T06:17:37.145Z,1003.88
2018-01-23T06:18:37.131Z,1003.86
2018-01-23T06:19:37.126Z,1003.81
2018-01-23T06:20:37.123Z,1003.82
2018-01-23T06:21:37.116Z,1003.86
2018-01-23T06:22:37.115Z,1003.85
2018-01-23T06:23:37.115Z,1003.91
2018-01-23T06:24:37.101Z,1003.91
2018-01-23T06:25:37.098Z,1003.95
2018-01-23T06:26:37.115Z,1003.95
2018-01-23T06:27:37.091Z,1003.90
2018-01-23T06:28:37.081Z,1003.95
2018-01-23T06:29:37.089Z,1004.00
2018-01-23T06:30:37.237Z,1004.02
2018-01-23T06:31:37.066Z,1003.94
2018-01-23T06:32:37.061Z,1004.00
2018-01-23T06:33:37.056Z,1003.96
2018-01-23T06:34:38.038Z,1004.00
2018-01-23T06:35:37.134Z,1003.96
2018-01-23T06:36:37.041Z,1004.00
2018-01-23T06:37:37.036Z,1003.99
2018-01-23T06:38:37.030Z,1004.03
2018-01-23T06:39:37.026Z,1004.02
2018-01-23T06:40:37.022Z,1004.07
2018-01-23T06:41:37.016Z,1004.06
2018-01-23T06:42:37.011Z,1004.07
2018-01-23T06:43:37.007Z,1004.10
2018-01-23T06:44:37.004Z,1004.11
2018-01-23T06:45:36.999Z,1004.18
2018-01-23T06:46:36.993Z,1004.16
2018-01-23T06:47:36.990Z,1004.18
2018-01-23T06:48:36.983Z,1004.21
2018-01-23T06:49:36.977Z,1004.21
2018-01-23T06:50:36.972Z,1004.23
2018-01-23T06:51:36.970Z,1004.23
2018-01-23T06:52:36.975Z,1004.28
2018-01-23T06:53:36.966Z,1004.31
2018-01-23T06:54:36.955Z,1004.29
2018-01-23T06:55:36.950Z,1004.30
2018-01-23T06:56:36.944Z,1004.30
2018-01-23T06:57:36.952Z,1004.30
2018-01-23T06:58:36.937Z,1004.31
2018-01-23T06:59:36.930Z,1004.33
2018-01-23T07:00:36.926Z,1004.30
2018-01-23T07:01:36.921Z,1004.35
2018-01-23T07:02:36.918Z,1004.35
2018-01-23T07:03:36.921Z,1004.42
2018-01-23T07:04:36.906Z,1004.42
2018-01-23T07:05:36.902Z,1004.47
2018-01-23T07:06:36.896Z,1004.51
2018-01-23T07:07:36.908Z,1004.58
2018-01-23T07:08:36.887Z,1004.58
2018-01-23T07:09:36.883Z,1004.61
2018-01-23T07:10:36.881Z,1004.62
2018-01-23T07:11:36.874Z,1004.61
2018-01-23T07:12:36.872Z,1004.66
2018-01-23T07:13:36.867Z,1004.63
2018-01-23T07:14:36.866Z,1004.67
2018-01-23T07:15:36.858Z,1004.73
2018-01-23T07:16:36.852Z,1004.75
2018-01-23T07:17:36.848Z,1004.77
2018-01-23T07:18:36.855Z,1004.84
2018-01-23T07:19:36.854Z,1004.79
2018-01-23T07:20:37.067Z,1004.82
2018-01-23T07:21:36.869Z,1004.85
2018-01-23T07:22:36.821Z,1004.84
2018-01-23T07:23:36.966Z,1004.90
2018-01-23T07:24:36.805Z,1004.91
2018-01-23T07:25:36.810Z,1004.93
2018-01-23T07:26:36.808Z,1004.95
2018-01-23T07:27:36.801Z,1004.96
2018-01-23T07:28:36.955Z,1004.91
2018-01-23T07:29:36.784Z,1004.97
2018-01-23T07:30:36.778Z,1004.91
2018-01-23T07:31:36.784Z,1004.90
2018-01-23T07:32:36.788Z,1004.94
2018-01-23T07:33:36.786Z,1004.95
2018-01-23T07:34:36.779Z,1004.92
2018-01-23T07:35:36.775Z,1004.96
2018-01-23T07:36:36.763Z,1004.96
2018-01-23T07:37:36.757Z,1004.95
2018-01-23T07:38:36.757Z,1004.99
2018-01-23T07:39:36.753Z,1004.97
2018-01-23T07:40:36.818Z,1005.03
2018-01-23T07:41:36.740Z,1005.07
2018-01-23T07:42:36.737Z,1005.07
2018-01-23T07:43:36.731Z,1005.08
2018-01-23T07:44:36.725Z,1005.12
2018-01-23T07:45:36.725Z,1005.11
2018-01-23T07:46:36.718Z,1005.12
2018-01-23T07:47:36.732Z,1005.13
2018-01-23T07:48:36.708Z,1005.13
2018-01-23T07:49:36.704Z,1005.12
2018-01-23T07:50:36.710Z,1005.16
2018-01-23T07:51:36.726Z,1005.16
2018-01-23T07:52:36.680Z,1005.15
2018-01-23T07:53:36.765Z,1005.20
2018-01-23T07:54:36.682Z,1005.20
2018-01-23T07:55:36.686Z,1005.20
2018-01-23T07:56:36.677Z,1005.24
2018-01-23T07:57:36.668Z,1005.28
2018-01-23T07:58:36.674Z,1005.16
2018-01-23T07:59:36.660Z,1005.24
2018-01-23T08:00:36.658Z,1005.26
2018-01-23T08:01:36.648Z,1005.28
2018-01-23T08:02:36.646Z,1005.33
2018-01-23T08:03:36.644Z,1005.33
2018-01-23T08:04:36.675Z,1005.36
2018-01-23T08:05:36.637Z,1005.31
2018-01-23T08:06:36.890Z,1005.43
2018-01-23T08:07:36.622Z,1005.41
2018-01-23T08:08:36.625Z,1005.38
2018-01-23T08:09:36.650Z,1005.39
2018-01-23T08:10:36.645Z,1005.39
2018-01-23T08:11:36.612Z,1005.39
2018-01-23T08:12:36.673Z,1005.39
2018-01-23T08:13:36.616Z,1005.39
2018-01-23T08:14:36.594Z,1005.40
2018-01-23T08:15:36.590Z,1005.42
2018-01-23T08:16:36.605Z,1005.45
2018-01-23T08:17:36.575Z,1005.43
2018-01-23T08:18:36.571Z,1005.45
2018-01-23T08:19:36.580Z,1005.42
2018-01-23T08:20:36.571Z,1005.47
2018-01-23T08:21:36.579Z,1005.47
2018-01-23T08:22:36.581Z,1005.48
2018-01-23T08:23:36.556Z,1005.49
2018-01-23T08:24:36.580Z,1005.52
2018-01-23T08:25:36.537Z,1005.45
2018-01-23T08:26:36.534Z,1005.49
2018-01-23T08:27:36.546Z,1005.46
2018-01-23T08:28:36.536Z,1005.46
2018-01-23T08:29:36.531Z,1005.45
2018-01-23T08:30:36.548Z,1005.48
2018-01-23T08:31:36.581Z,1005.46
2018-01-23T08:32:36.524Z,1005.51
2018-01-23T08:33:36.518Z,1005.52
2018-01-23T08:34:36.516Z,1005.49
2018-01-23T08:35:36.586Z,1005.53
2018-01-23T08:36:36.503Z,1005.55
2018-01-23T08:37:37.266Z,1005.54
2018-01-23T08:38:36.496Z,1005.56
2018-01-23T08:39:36.491Z,1005.60
2018-01-23T08:40:36.507Z,1005.57
2018-01-23T08:41:36.489Z,1005.62
2018-01-23T08:42:36.713Z,1005.60
2018-01-23T08:43:36.562Z,1005.68
2018-01-23T08:44:36.819Z,1005.62
2018-01-23T08:45:36.482Z,1005.64
2018-01-23T08:46:36.534Z,1005.68
2018-01-23T08:47:36.530Z,1005.68
2018-01-23T08:48:36.608Z,1005.65
2018-01-23T08:49:36.649Z,1005.67
2018-01-23T08:50:36.546Z,1005.76
2018-01-23T08:51:36.466Z,1005.73
2018-01-23T08:52:36.444Z,1005.75
2018-01-23T08:53:37.478Z,1005.72
2018-01-23T08:54:37.331Z,1005.70
2018-01-23T08:55:36.418Z,1005.73
2018-01-23T08:56:37.443Z,1005.74
2018-01-23T08:57:36.410Z,1005.75
2018-01-23T08:58:36.408Z,1005.80
2018-01-23T08:59:36.413Z,1005.76
2018-01-23T09:00:36.414Z,1005.79
2018-01-23T09:01:36.414Z,1005.79
2018-01-23T09:02:36.405Z,1005.77
2018-01-23T09:03:36.411Z,1005.83
2018-01-23T09:04:36.395Z,1005.85
2018-01-23T09:05:36.400Z,1005.84
2018-01-23T09:06:36.393Z,1005.85
2018-01-23T09:07:36.384Z,1005.87
2018-01-23T09:08:36.382Z,1005.91
2018-01-23T09:09:36.381Z,1005.91
2018-01-23T09:10:36.377Z,1005.93
2018-01-23T09:11:36.370Z,1005.97
2018-01-23T09:12:36.366Z,1006.05
2018-01-23T09:13:36.362Z,1006.03
2018-01-23T09:14:36.359Z,1006.09
2018-01-23T09:15:36.361Z,1006.11
2018-01-23T09:16:36.349Z,1006.13
2018-01-23T09:17:36.341Z,1006.16
2018-01-23T09:18:36.346Z,1006.12
2018-01-23T09:19:36.342Z,1006.13
2018-01-23T09:20:36.341Z,1006.18
2018-01-23T09:21:36.334Z,1006.13
2018-01-23T09:22:36.337Z,1006.14
2018-01-23T09:23:36.329Z,1006.16
2018-01-23T09:24:36.344Z,1006.20
2018-01-23T09:25:36.323Z,1006.23
2018-01-23T09:26:36.324Z,1006.22
2018-01-23T09:27:36.326Z,1006.25
2018-01-23T09:28:36.312Z,1006.31
2018-01-23T09:29:36.312Z,1006.32
2018-01-23T09:30:36.305Z,1006.36
2018-01-23T09:31:36.449Z,1006.34
2018-01-23T09:32:36.298Z,1006.37
2018-01-23T09:33:36.299Z,1006.37
2018-01-23T09:34:36.291Z,1006.42
2018-01-23T09:35:36.288Z,1006.41
2018-01-23T09:36:36.286Z,1006.38
2018-01-23T09:37:37.921Z,1006.47
2018-01-23T09:38:36.280Z,1006.46
2018-01-23T09:39:37.921Z,1006.47
2018-01-23T09:40:36.273Z,1006.48
2018-01-23T09:41:36.269Z,1006.52
2018-01-23T09:42:36.268Z,1006.56
2018-01-23T09:43:36.266Z,1006.53
2018-01-23T09:44:36.260Z,1006.61
2018-01-23T09:45:36.258Z,1006.65
2018-01-23T09:46:36.253Z,1006.67
2018-01-23T09:47:36.251Z,1006.65
2018-01-23T09:48:37.922Z,1006.69
2018-01-23T09:49:37.923Z,1006.66
2018-01-23T09:50:36.241Z,1006.71
2018-01-23T09:51:36.259Z,1006.74
2018-01-23T09:52:36.237Z,1006.69
2018-01-23T09:53:36.232Z,1006.70
2018-01-23T09:54:36.229Z,1006.79
2018-01-23T09:55:36.226Z,1006.77
2018-01-23T09:56:36.260Z,1006.77
2018-01-23T09:57:36.218Z,1006.78
2018-01-23T09:58:36.216Z,1006.77
2018-01-23T09:59:36.215Z,1006.82
2018-01-23T10:00:36.227Z,1006.83
2018-01-23T10:01:36.212Z,1006.82
2018-01-23T10:02:36.204Z,1006.85
2018-01-23T10:03:36.225Z,1006.88
2018-01-23T10:04:36.199Z,1006.87
2018-01-23T10:05:36.204Z,1006.87
2018-01-23T10:06:36.195Z,1006.89
2018-01-23T10:07:36.191Z,1006.89
2018-01-23T10:08:36.188Z,1006.83
2018-01-23T10:09:36.507Z,1006.80
2018-01-23T10:10:36.183Z,1006.81
2018-01-23T10:11:36.183Z,1006.83
2018-01-23T10:12:36.188Z,1006.81
2018-01-23T10:13:36.179Z,1006.89
2018-01-23T10:14:36.190Z,1006.84
2018-01-23T10:15:36.181Z,1006.87
2018-01-23T10:16:36.165Z,1006.87
2018-01-23T10:17:37.926Z,1006.88
2018-01-23T10:18:37.926Z,1006.90
2018-01-23T10:19:36.165Z,1006.86
2018-01-23T10:20:36.161Z,1006.93
2018-01-23T10:21:36.151Z,1006.91
2018-01-23T10:22:36.149Z,1006.93
2018-01-23T10:23:36.149Z,1006.92
2018-01-23T10:24:36.144Z,1006.92
2018-01-23T10:25:36.141Z,1006.93
2018-01-23T10:26:36.140Z,1006.94
2018-01-23T10:27:36.136Z,1006.97
2018-01-23T10:28:36.135Z,1006.95
2018-01-23T10:29:36.133Z,1006.95
2018-01-23T10:30:36.125Z,1006.96
2018-01-23T10:31:36.123Z,1007.03
2018-01-23T10:32:36.121Z,1007.00
2018-01-23T10:33:36.117Z,1007.01
2018-01-23T10:34:36.120Z,1007.00
2018-01-23T10:35:36.111Z,1006.99
2018-01-23T10:36:36.118Z,1006.99
2018-01-23T10:37:36.104Z,1007.01
2018-01-23T10:38:36.101Z,1006.97
2018-01-23T10:39:36.099Z,1006.96
2018-01-23T10:40:36.920Z,1007.00
2018-01-23T10:41:36.095Z,1007.00
2018-01-23T10:42:36.098Z,1006.99
2018-01-23T10:43:36.100Z,1007.01
2018-01-23T10:44:36.098Z,1007.03
2018-01-23T10:45:36.239Z,1007.00
2018-01-23T10:46:36.219Z,1007.02
2018-01-23T10:47:37.104Z,1007.00
2018-01-23T10:48:36.072Z,1007.02
2018-01-23T10:49:36.071Z,1006.98
2018-01-23T10:50:36.070Z,1007.02
2018-01-23T10:51:36.062Z,1007.05
2018-01-23T10:52:36.063Z,1007.02
2018-01-23T10:53:36.056Z,1006.98
2018-01-23T10:54:36.053Z,1007.02
2018-01-23T10:55:36.053Z,1007.06
2018-01-23T10:56:36.053Z,1007.05
2018-01-23T10:57:36.045Z,1007.06
2018-01-23T10:58:36.044Z,1007.07
2018-01-23T10:59:36.050Z,1007.05
2018-01-23T11:00:36.037Z,1007.06
2018-01-23T11:01:36.032Z,1007.04
2018-01-23T11:02:36.032Z,1007.01
2018-01-23T11:03:36.042Z,1007.05
2018-01-23T11:04:36.023Z,1007.03
2018-01-23T11:05:36.066Z,1007.03
2018-01-23T11:06:36.036Z,1007.02
2018-01-23T11:07:36.020Z,1007.02
2018-01-23T11:08:36.016Z,1007.05
2018-01-23T11:09:36.017Z,1007.13
2018-01-23T11:10:36.017Z,1007.09
2018-01-23T11:11:36.009Z,1007.10
2018-01-23T11:12:36.001Z,1007.14
2018-01-23T11:13:36.003Z,1007.14
2018-01-23T11:14:35.992Z,1007.13
2018-01-23T11:15:36.004Z,1007.17
2018-01-23T11:16:35.989Z,1007.17
2018-01-23T11:17:35.988Z,1007.17
2018-01-23T11:18:35.998Z,1007.19
2018-01-23T11:19:35.977Z,1007.15
2018-01-23T11:20:36.006Z,1007.11
2018-01-23T11:21:35.975Z,1007.15
2018-01-23T11:22:35.970Z,1007.17
2018-01-23T11:23:35.975Z,1007.15
2018-01-23T11:24:35.962Z,1007.15
2018-01-23T11:25:35.960Z,1007.15
2018-01-23T11:26:35.957Z,1007.16
2018-01-23T11:27:35.969Z,1007.18
2018-01-23T11:28:35.948Z,1007.20
2018-01-23T11:29:35.945Z,1007.21
2018-01-23T11:30:35.953Z,1007.16
2018-01-23T11:31:35.942Z,1007.20
2018-01-23T11:32:35.940Z,1007.21
2018-01-23T11:33:36.002Z,1007.16
2018-01-23T11:34:35.930Z,1007.23
2018-01-23T11:35:35.959Z,1007.22
2018-01-23T11:36:35.926Z,1007.14
2018-01-23T11:37:35.924Z,1007.22
2018-01-23T11:38:35.918Z,1007.20
2018-01-23T11:39:35.916Z,1007.16
2018-01-23T11:40:35.914Z,1007.17
2018-01-23T11:41:35.927Z,1007.17
2018-01-23T11:42:35.909Z,1007.17
2018-01-23T11:43:36.193Z,1007.15
2018-01-23T11:44:35.973Z,1007.17
2018-01-23T11:45:35.885Z,1007.18
2018-01-23T11:46:35.893Z,1007.15
2018-01-23T11:47:35.890Z,1007.17
2018-01-23T11:48:35.892Z,1007.18
2018-01-23T11:49:35.903Z,1007.17
2018-01-23T11:50:35.899Z,1007.18
2018-01-23T11:51:35.931Z,1007.17
2018-01-23T11:52:35.877Z,1007.12
2018-01-23T11:53:35.871Z,1007.16
2018-01-23T11:54:35.983Z,1007.16
2018-01-23T11:55:35.865Z,1007.15
2018-01-23T11:56:35.863Z,1007.16
2018-01-23T11:57:35.931Z,1007.12
2018-01-23T11:58:35.856Z,1007.12
2018-01-23T11:59:35.860Z,1007.14
2018-01-23T12:00:35.851Z,1007.13
2018-01-23T12:01:35.850Z,1007.09
2018-01-23T12:02:35.845Z,1007.08
2018-01-23T12:03:35.842Z,1007.13
2018-01-23T12:04:35.838Z,1007.04
2018-01-23T12:05:35.906Z,1007.02
2018-01-23T12:06:35.924Z,1006.98
2018-01-23T12:07:35.890Z,1007.02
2018-01-23T12:08:35.818Z,1007.01